createdAt,value
2023-04-03T00:01:50.757Z,1.27
2023-04-03T00:04:17.210Z,1.24
2023-04-03T00:06:43.776Z,1.23
2023-04-03T00:09:10.645Z,1.19
2023-04-03T00:11:37.288Z,1.18
2023-04-03T00:14:03.694Z,1.14
2023-04-03T00:16:30.196Z,1.18
2023-04-03T00:18:56.812Z,1.16
2023-04-03T00:21:23.161Z,1.14
2023-04-03T00:23:49.748Z,1.19
2023-04-03T00:26:16.086Z,1.08
2023-04-03T00:28:42.474Z,1.01
2023-04-03T00:31:08.982Z,1.04
2023-04-03T00:33:35.461Z,1.01
2023-04-03T00:36:07.513Z,1.00
2023-04-03T00:38:33.936Z,0.92
2023-04-03T00:41:00.292Z,0.93
2023-04-03T00:43:27.521Z,0.91
2023-04-03T00:45:54.980Z,0.88
2023-04-03T00:48:27.108Z,0.86
2023-04-03T00:50:53.497Z,0.85
2023-04-03T00:53:26.399Z,0.72
2023-04-03T00:55:53.251Z,0.69
2023-04-03T00:58:21.513Z,0.67
2023-04-03T01:00:52.783Z,0.68
2023-04-03T01:03:19.122Z,0.64
2023-04-03T01:05:45.558Z,0.71
2023-04-03T01:08:12.151Z,0.69
2023-04-03T01:10:38.931Z,0.66
2023-04-03T01:13:18.933Z,0.63
2023-04-03T01:15:45.750Z,0.66
2023-04-03T01:18:12.373Z,0.67
2023-04-03T01:20:45.896Z,0.54
2023-04-03T01:23:27.617Z,0.57
2023-04-03T01:25:55.910Z,0.58
2023-04-03T01:28:32.576Z,0.57
2023-04-03T01:31:01.723Z,0.57
2023-04-03T01:33:28.107Z,0.57
2023-04-03T01:35:54.490Z,0.57
2023-04-03T01:38:21.396Z,0.57
2023-04-03T01:40:47.775Z,0.55
2023-04-03T01:43:14.131Z,0.53
2023-04-03T01:45:40.869Z,0.51
2023-04-03T01:48:07.231Z,0.47
2023-04-03T01:50:33.695Z,0.45
2023-04-03T01:53:00.192Z,0.44
2023-04-03T01:55:26.549Z,0.43
2023-04-03T01:57:53.074Z,0.40
2023-04-03T02:00:19.683Z,0.26
2023-04-03T02:02:46.301Z,0.21
2023-04-03T02:05:12.660Z,0.17
2023-04-03T02:07:38.999Z,0.17
2023-04-03T02:10:06.146Z,0.11
2023-04-03T02:12:32.512Z,0.09
2023-04-03T02:14:59.079Z,0.15
2023-04-03T02:17:25.683Z,0.14
2023-04-03T02:19:52.076Z,0.14
2023-04-03T02:22:18.669Z,0.15
2023-04-03T02:24:45.589Z,0.05
2023-04-03T02:27:12.187Z,-0.01
2023-04-03T02:29:38.531Z,0.05
2023-04-03T02:32:05.390Z,0.11
2023-04-03T02:34:31.754Z,0.04
2023-04-03T02:36:58.111Z,0.06
2023-04-03T02:39:24.810Z,-0.01
2023-04-03T02:41:51.168Z,0.09
2023-04-03T02:44:17.785Z,0.07
2023-04-03T02:46:44.166Z,-0.01
2023-04-03T02:49:10.814Z,0.00
2023-04-03T02:51:37.275Z,-0.11
2023-04-03T02:54:03.716Z,-0.05
2023-04-03T02:56:30.509Z,-0.09
2023-04-03T02:58:57.065Z,-0.11
2023-04-03T03:01:23.531Z,-0.08
2023-04-03T03:03:50.022Z,-0.01
2023-04-03T03:06:17.385Z,-0.01
2023-04-03T03:08:44.177Z,-0.02
2023-04-03T03:11:11.093Z,-0.02
2023-04-03T03:13:37.599Z,-0.06
2023-04-03T03:16:04.181Z,-0.06
2023-04-03T03:18:30.622Z,-0.07
2023-04-03T03:20:57.872Z,-0.07
2023-04-03T03:23:25.053Z,-0.06
2023-04-03T03:25:58.407Z,-0.10
2023-04-03T03:28:25.290Z,-0.12
2023-04-03T03:30:51.769Z,-0.15
2023-04-03T03:33:18.797Z,-0.16
2023-04-03T03:35:45.639Z,-0.16
2023-04-03T03:38:12.144Z,-0.18
2023-04-03T03:40:38.534Z,-0.23
2023-04-03T03:43:04.891Z,-0.27
2023-04-03T03:45:32.088Z,-0.28
2023-04-03T03:47:58.730Z,-0.29
2023-04-03T03:50:25.423Z,-0.30
2023-04-03T03:52:52.092Z,-0.29
2023-04-03T03:55:18.718Z,-0.34
2023-04-03T03:57:45.103Z,-0.37
2023-04-03T04:00:11.927Z,-0.38
2023-04-03T04:02:38.357Z,-0.40
2023-04-03T04:05:05.454Z,-0.42
2023-04-03T04:07:31.791Z,-0.40
2023-04-03T04:09:58.319Z,-0.41
2023-04-03T04:12:24.712Z,-0.42
2023-04-03T04:14:51.096Z,-0.43
2023-04-03T04:17:17.463Z,-0.43
2023-04-03T04:19:43.811Z,-0.46
2023-04-03T04:22:10.357Z,-0.49
2023-04-03T04:24:38.399Z,-0.48
2023-04-03T04:27:05.807Z,-0.50
2023-04-03T04:29:36.537Z,-0.52
2023-04-03T04:32:03.916Z,-0.51
2023-04-03T04:34:31.412Z,-0.51
2023-04-03T04:36:57.975Z,-0.51
2023-04-03T04:39:24.490Z,-0.49
2023-04-03T04:41:50.845Z,-0.51
2023-04-03T04:44:17.409Z,-0.53
2023-04-03T04:46:43.822Z,-0.56
2023-04-03T04:49:10.286Z,-0.56
2023-04-03T04:51:48.265Z,-0.56
2023-04-03T04:54:18.275Z,-0.57
2023-04-03T04:56:44.826Z,-0.59
2023-04-03T04:59:11.247Z,-0.62
2023-04-03T05:01:37.644Z,-0.62
2023-04-03T05:04:04.241Z,-0.65
2023-04-03T05:06:33.930Z,-0.62
2023-04-03T05:09:00.597Z,-0.62
2023-04-03T05:11:27.137Z,-0.70
2023-04-03T05:13:53.496Z,-0.71
2023-04-03T05:16:20.088Z,-0.66
2023-04-03T05:18:46.466Z,-0.61
2023-04-03T05:21:12.957Z,-0.64
2023-04-03T05:23:39.562Z,-0.59
2023-04-03T05:26:06.457Z,-0.62
2023-04-03T05:28:33.009Z,-0.54
2023-04-03T05:30:59.732Z,-0.62
2023-04-03T05:33:27.152Z,-0.67
2023-04-03T05:35:54.319Z,-0.61
2023-04-03T05:38:21.328Z,-0.58
2023-04-03T05:40:47.880Z,-0.53
2023-04-03T05:43:14.325Z,-0.49
2023-04-03T05:45:41.032Z,-0.39
2023-04-03T05:48:07.491Z,-0.46
2023-04-03T05:50:33.886Z,-0.36
2023-04-03T05:53:00.529Z,-0.32
2023-04-03T05:55:26.882Z,-0.23
2023-04-03T05:57:53.251Z,-0.27
2023-04-03T06:00:20.197Z,-0.24
2023-04-03T06:02:46.628Z,-0.13
2023-04-03T06:05:14.134Z,-0.08
2023-04-03T06:07:40.855Z,0.02
2023-04-03T06:10:07.847Z,0.05
2023-04-03T06:12:34.236Z,0.06
2023-04-03T06:15:00.625Z,0.14
2023-04-03T06:17:27.980Z,0.14
2023-04-03T06:19:54.509Z,0.11
2023-04-03T06:22:20.936Z,0.22
2023-04-03T06:24:47.487Z,0.27
2023-04-03T06:27:13.936Z,0.32
2023-04-03T06:29:40.852Z,0.40
2023-04-03T06:32:07.248Z,0.40
2023-04-03T06:34:34.356Z,0.45
2023-04-03T06:37:01.097Z,0.56
2023-04-03T06:39:28.222Z,0.55
2023-04-03T06:41:54.576Z,0.60
2023-04-03T06:44:21.164Z,0.64
2023-04-03T06:46:47.759Z,0.70
2023-04-03T06:49:14.202Z,0.74
2023-04-03T06:51:40.773Z,0.82
2023-04-03T06:54:07.369Z,0.88
2023-04-03T06:56:33.935Z,0.94
2023-04-03T06:59:00.871Z,0.99
2023-04-03T07:01:30.856Z,1.04
2023-04-03T07:03:57.452Z,1.11
2023-04-03T07:06:24.145Z,1.16
2023-04-03T07:08:50.517Z,1.19
2023-04-03T07:11:16.958Z,1.25
2023-04-03T07:13:43.345Z,1.29
2023-04-03T07:16:09.891Z,1.37
2023-04-03T07:18:36.891Z,1.41
2023-04-03T07:21:03.756Z,1.48
2023-04-03T07:23:30.299Z,1.50
2023-04-03T07:26:00.010Z,1.60
2023-04-03T07:28:29.338Z,1.61
2023-04-03T07:31:01.532Z,1.61
2023-04-03T07:33:28.071Z,1.71
2023-04-03T07:35:54.621Z,1.78
2023-04-03T07:38:21.084Z,1.87
2023-04-03T07:40:50.841Z,1.95
2023-04-03T07:43:17.915Z,1.99
2023-04-03T07:45:44.477Z,2.13
2023-04-03T07:48:11.949Z,2.13
2023-04-03T07:50:38.605Z,2.24
2023-04-03T07:53:04.967Z,2.32
2023-04-03T07:55:34.451Z,2.39
2023-04-03T07:58:01.467Z,2.48
2023-04-03T08:00:27.820Z,2.56
2023-04-03T08:02:54.344Z,2.64
2023-04-03T08:05:21.549Z,2.75
2023-04-03T08:07:48.081Z,2.91
2023-04-03T08:10:15.237Z,2.98
2023-04-03T08:12:42.081Z,3.07
2023-04-03T08:15:09.224Z,3.13
2023-04-03T08:17:35.948Z,3.18
2023-04-03T08:20:03.525Z,3.28
2023-04-03T08:22:30.574Z,3.44
2023-04-03T08:24:59.428Z,3.52
2023-04-03T08:27:28.132Z,3.63
2023-04-03T08:29:54.510Z,3.72
2023-04-03T08:32:20.877Z,3.78
2023-04-03T08:34:47.517Z,3.94
2023-04-03T08:37:14.097Z,4.07
2023-04-03T08:39:40.440Z,4.18
2023-04-03T08:42:15.626Z,4.19
2023-04-03T08:44:55.434Z,4.21
2023-04-03T08:47:27.034Z,4.24
2023-04-03T08:49:56.810Z,4.27
2023-04-03T08:52:51.639Z,4.28
2023-04-03T08:55:31.609Z,4.28
2023-04-03T08:58:02.865Z,4.45
2023-04-03T09:00:32.499Z,4.51
2023-04-03T09:02:58.937Z,4.54
2023-04-03T09:05:31.417Z,4.56
2023-04-03T09:07:59.410Z,4.33
2023-04-03T09:10:28.556Z,4.32
2023-04-03T09:13:03.656Z,4.52
2023-04-03T09:15:38.508Z,4.56
2023-04-03T09:18:21.825Z,4.59
2023-04-03T09:21:00.297Z,4.62
2023-04-03T09:23:33.596Z,4.62
2023-04-03T09:26:14.226Z,4.78
2023-04-03T09:28:49.238Z,4.83
2023-04-03T09:31:25.848Z,4.83
2023-04-03T09:33:55.809Z,4.85
2023-04-03T09:37:06.780Z,4.82
2023-04-03T09:39:34.859Z,4.97
2023-04-03T09:42:02.190Z,4.79
2023-04-03T09:44:29.871Z,4.65
2023-04-03T09:46:56.508Z,4.47
2023-04-03T09:49:22.906Z,4.47
2023-04-03T09:51:50.080Z,4.74
2023-04-03T09:54:45.756Z,5.43
2023-04-03T09:57:15.165Z,5.43
2023-04-03T09:59:47.685Z,5.08
2023-04-03T10:02:16.902Z,5.03
2023-04-03T10:04:43.289Z,4.96
2023-04-03T10:07:29.605Z,4.90
2023-04-03T10:09:58.149Z,4.94
2023-04-03T10:12:24.498Z,4.90
2023-04-03T10:14:54.116Z,4.94
2023-04-03T10:17:48.805Z,4.96
2023-04-03T10:20:33.521Z,5.03
2023-04-03T10:23:20.892Z,5.05
2023-04-03T10:25:53.330Z,5.11
2023-04-03T10:28:44.479Z,5.23
2023-04-03T10:31:23.238Z,5.21
2023-04-03T10:34:12.772Z,5.27
2023-04-03T10:36:56.240Z,5.35
2023-04-03T10:39:39.408Z,5.44
2023-04-03T10:42:35.233Z,5.38
2023-04-03T10:45:09.373Z,5.44
2023-04-03T10:47:41.812Z,5.47
2023-04-03T10:50:22.421Z,5.41
2023-04-03T10:53:02.457Z,5.30
2023-04-03T10:55:38.030Z,5.31
2023-04-03T10:58:04.834Z,5.31
2023-04-03T11:00:41.258Z,5.46
2023-04-03T11:03:12.754Z,5.44
2023-04-03T11:05:46.730Z,5.69
2023-04-03T11:08:27.782Z,6.48
2023-04-03T11:10:56.388Z,7.27
2023-04-03T11:14:01.500Z,7.97
2023-04-03T11:16:30.598Z,8.41
2023-04-03T11:19:06.053Z,8.92
2023-04-03T11:21:47.765Z,9.09
2023-04-03T11:24:22.305Z,9.57
2023-04-03T11:26:48.658Z,9.58
2023-04-03T11:29:28.120Z,10.31
2023-04-03T11:32:10.196Z,8.69
2023-04-03T11:34:44.225Z,7.95
2023-04-03T11:37:15.355Z,7.80
2023-04-03T11:39:52.315Z,8.67
2023-04-03T11:42:27.591Z,8.20
2023-04-03T11:45:22.770Z,8.30
2023-04-03T11:47:50.687Z,7.85
2023-04-03T11:50:35.406Z,7.66
2023-04-03T11:53:08.236Z,7.78
2023-04-03T11:55:35.071Z,7.63
2023-04-03T11:58:01.909Z,7.49
2023-04-03T12:00:53.177Z,7.41
2023-04-03T12:03:25.870Z,7.00
2023-04-03T12:06:19.912Z,7.28
2023-04-03T12:08:47.860Z,8.27
2023-04-03T12:11:14.450Z,9.43
2023-04-03T12:13:49.960Z,10.23
2023-04-03T12:16:44.901Z,10.58
2023-04-03T12:19:44.591Z,10.38
2023-04-03T12:22:13.734Z,9.66
2023-04-03T12:24:41.940Z,9.15
2023-04-03T12:27:24.699Z,9.74
2023-04-03T12:29:53.013Z,10.58
2023-04-03T12:32:41.423Z,10.55
2023-04-03T12:35:49.267Z,10.62
2023-04-03T12:38:21.693Z,9.79
2023-04-03T12:40:59.148Z,10.39
2023-04-03T12:43:41.254Z,10.61
2023-04-03T12:46:07.765Z,9.59
2023-04-03T12:48:48.277Z,9.06
2023-04-03T12:51:20.881Z,8.92
2023-04-03T12:53:47.399Z,8.59
2023-04-03T12:56:23.393Z,8.46
2023-04-03T12:58:51.355Z,8.36
2023-04-03T13:01:19.721Z,8.37
2023-04-03T13:03:48.243Z,8.52
2023-04-03T13:06:19.890Z,9.40
2023-04-03T13:09:05.165Z,10.22
2023-04-03T13:11:36.878Z,10.41
2023-04-03T13:14:06.294Z,10.82
2023-04-03T13:16:34.399Z,11.13
2023-04-03T13:19:01.110Z,11.07
2023-04-03T13:21:29.037Z,10.16
2023-04-03T13:24:07.052Z,9.56
2023-04-03T13:26:38.428Z,10.34
2023-04-03T13:29:08.377Z,11.16
2023-04-03T13:31:38.305Z,11.28
2023-04-03T13:34:11.913Z,11.85
2023-04-03T13:36:42.039Z,11.51
2023-04-03T13:39:22.226Z,11.54
2023-04-03T13:41:50.318Z,11.80
2023-04-03T13:44:22.666Z,12.41
2023-04-03T13:46:52.727Z,11.38
2023-04-03T13:49:22.891Z,10.78
2023-04-03T13:51:57.063Z,9.56
2023-04-03T13:54:38.405Z,9.26
2023-04-03T13:57:12.805Z,9.78
2023-04-03T13:59:39.392Z,10.85
2023-04-03T14:02:06.173Z,10.68
2023-04-03T14:04:38.813Z,11.62
2023-04-03T14:07:05.583Z,11.91
2023-04-03T14:09:32.315Z,10.14
2023-04-03T14:12:01.278Z,10.25
2023-04-03T14:14:28.921Z,10.55
2023-04-03T14:16:56.715Z,11.32
2023-04-03T14:19:27.189Z,11.59
2023-04-03T14:21:54.301Z,10.80
2023-04-03T14:24:21.116Z,10.08
2023-04-03T14:26:47.583Z,9.30
2023-04-03T14:29:14.219Z,9.18
2023-04-03T14:31:41.939Z,8.94
2023-04-03T14:34:08.412Z,10.62
2023-04-03T14:36:35.212Z,10.60
2023-04-03T14:39:01.770Z,11.32
2023-04-03T14:41:28.334Z,11.43
2023-04-03T14:43:54.891Z,10.85
2023-04-03T14:46:48.122Z,11.28
2023-04-03T14:49:21.995Z,11.50
2023-04-03T14:51:48.398Z,12.16
2023-04-03T14:54:16.352Z,10.56
2023-04-03T14:56:42.758Z,9.43
2023-04-03T14:59:10.666Z,9.22
2023-04-03T15:01:37.046Z,9.19
2023-04-03T15:04:11.041Z,9.08
2023-04-03T15:06:37.484Z,8.97
2023-04-03T15:09:04.160Z,9.31
2023-04-03T15:11:30.609Z,9.91
2023-04-03T15:13:56.996Z,9.53
2023-04-03T15:16:23.555Z,9.71
2023-04-03T15:18:49.993Z,10.27
2023-04-03T15:21:16.547Z,11.25
2023-04-03T15:23:43.710Z,11.98
2023-04-03T15:26:10.167Z,11.60
2023-04-03T15:28:40.683Z,11.69
2023-04-03T15:31:07.074Z,11.45
2023-04-03T15:33:33.962Z,10.25
2023-04-03T15:36:07.381Z,9.71
2023-04-03T15:38:34.558Z,8.80
2023-04-03T15:41:01.113Z,8.90
2023-04-03T15:43:27.590Z,8.82
2023-04-03T15:45:53.993Z,9.06
2023-04-03T15:48:20.463Z,9.74
2023-04-03T15:50:46.812Z,9.97
2023-04-03T15:53:13.221Z,9.76
2023-04-03T15:55:39.850Z,9.97
2023-04-03T15:58:06.481Z,9.83
2023-04-03T16:00:33.000Z,9.37
2023-04-03T16:03:02.535Z,9.46
2023-04-03T16:05:29.080Z,9.44
2023-04-03T16:07:56.155Z,9.21
2023-04-03T16:10:22.663Z,8.68
2023-04-03T16:12:49.009Z,8.38
2023-04-03T16:15:15.388Z,8.10
2023-04-03T16:17:42.089Z,8.12
2023-04-03T16:20:09.078Z,8.18
2023-04-03T16:22:35.443Z,8.08
2023-04-03T16:25:02.072Z,8.68
2023-04-03T16:27:30.049Z,9.08
2023-04-03T16:29:56.481Z,8.55
2023-04-03T16:32:23.364Z,8.69
2023-04-03T16:34:49.769Z,8.87
2023-04-03T16:37:17.134Z,8.95
2023-04-03T16:39:43.811Z,8.32
2023-04-03T16:42:10.701Z,8.08
2023-04-03T16:44:37.753Z,7.99
2023-04-03T16:47:04.227Z,7.81
2023-04-03T16:49:33.642Z,8.18
2023-04-03T16:52:01.530Z,8.04
2023-04-03T16:54:27.872Z,7.83
2023-04-03T16:56:54.212Z,7.62
2023-04-03T16:59:21.118Z,7.62
2023-04-03T17:01:47.704Z,7.44
2023-04-03T17:04:14.230Z,7.34
2023-04-03T17:06:40.902Z,7.29
2023-04-03T17:09:07.436Z,7.26
2023-04-03T17:14:05.641Z,7.18
2023-04-03T17:16:33.147Z,6.97
2023-04-03T17:19:01.131Z,6.93
2023-04-03T17:21:27.700Z,6.92
2023-04-03T17:23:58.984Z,6.90
2023-04-03T17:26:26.531Z,6.76
2023-04-03T17:28:53.518Z,6.79
2023-04-03T17:31:20.033Z,6.84
2023-04-03T17:33:46.416Z,6.64
2023-04-03T17:36:12.899Z,6.71
2023-04-03T17:38:39.273Z,6.47
2023-04-03T17:41:07.278Z,6.32
2023-04-03T17:43:33.868Z,6.17
2023-04-03T17:46:04.971Z,6.02
2023-04-03T17:48:32.341Z,5.97
2023-04-03T17:50:58.988Z,6.06
2023-04-03T17:53:27.481Z,5.81
2023-04-03T17:55:53.878Z,5.72
2023-04-03T17:58:20.252Z,5.70
2023-04-03T18:00:46.635Z,5.61
2023-04-03T18:03:13.100Z,5.59
2023-04-03T18:05:39.643Z,5.53
2023-04-03T18:08:06.244Z,5.58
2023-04-03T18:10:32.691Z,5.40
2023-04-03T18:12:59.086Z,5.37
2023-04-03T18:15:25.893Z,5.31
2023-04-03T18:17:56.510Z,5.24
2023-04-03T18:20:23.887Z,5.12
2023-04-03T18:22:50.757Z,5.04
2023-04-03T18:25:18.068Z,4.95
2023-04-03T18:27:44.888Z,4.82
2023-04-03T18:30:13.367Z,4.74
2023-04-03T18:32:40.479Z,4.63
2023-04-03T18:35:09.111Z,4.53
2023-04-03T18:37:35.798Z,4.54
2023-04-03T18:40:02.202Z,4.54
2023-04-03T18:42:28.808Z,4.42
2023-04-03T18:44:58.469Z,4.45
2023-04-03T18:47:24.905Z,4.42
2023-04-03T18:49:51.522Z,4.34
2023-04-03T18:52:17.863Z,4.25
2023-04-03T18:54:44.374Z,4.23
2023-04-03T18:57:10.816Z,4.18
2023-04-03T18:59:37.785Z,4.15
2023-04-03T19:02:05.305Z,4.17
2023-04-03T19:04:31.734Z,4.21
2023-04-03T19:06:58.079Z,4.21
2023-04-03T19:09:25.303Z,4.20
2023-04-03T19:11:51.738Z,4.18
2023-04-03T19:14:18.083Z,4.16
2023-04-03T19:16:44.787Z,4.16
2023-04-03T19:19:11.529Z,4.14
2023-04-03T19:21:41.149Z,4.08
2023-04-03T19:24:11.969Z,4.03
2023-04-03T19:26:38.836Z,3.98
2023-04-03T19:29:05.371Z,3.93
2023-04-03T19:31:33.489Z,3.93
2023-04-03T19:34:00.915Z,3.89
2023-04-03T19:36:27.279Z,3.89
2023-04-03T19:38:53.905Z,3.87
2023-04-03T19:41:22.876Z,3.88
2023-04-03T19:43:50.782Z,3.86
2023-04-03T19:46:18.763Z,3.78
2023-04-03T19:48:47.258Z,3.73
2023-04-03T19:51:14.115Z,3.73
2023-04-03T19:53:40.645Z,3.69
2023-04-03T19:56:07.212Z,3.64
2023-04-03T19:58:34.325Z,3.66
2023-04-03T20:01:00.675Z,3.65
2023-04-03T20:03:27.144Z,3.62
2023-04-03T20:05:57.696Z,3.54
2023-04-03T20:08:26.219Z,3.44
2023-04-03T20:10:52.640Z,3.33
2023-04-03T20:13:19.002Z,3.29
2023-04-03T20:15:45.610Z,3.22
2023-04-03T20:18:19.442Z,3.20
2023-04-03T20:20:59.532Z,3.22
2023-04-03T20:23:27.136Z,3.22
2023-04-03T20:26:05.981Z,3.18
2023-04-03T20:28:36.161Z,3.18
2023-04-03T20:31:03.517Z,3.15
2023-04-03T20:33:30.105Z,3.11
2023-04-03T20:35:57.468Z,3.03
2023-04-03T20:38:23.858Z,2.98
2023-04-03T20:40:50.541Z,2.91
2023-04-03T20:43:17.226Z,2.83
2023-04-03T20:45:43.900Z,2.72
2023-04-03T20:48:13.067Z,2.63
2023-04-03T20:50:41.134Z,2.57
2023-04-03T20:53:08.221Z,2.50
2023-04-03T20:55:34.857Z,2.40
2023-04-03T20:58:01.793Z,2.36
2023-04-03T21:00:28.558Z,2.32
2023-04-03T21:02:57.000Z,2.24
2023-04-03T21:05:26.142Z,2.27
2023-04-03T21:08:30.669Z,2.25
2023-04-03T21:11:34.369Z,2.20
2023-04-03T21:14:38.277Z,2.10
2023-04-03T21:17:04.644Z,2.03
2023-04-03T21:19:31.014Z,1.99
2023-04-03T21:22:00.860Z,1.95
2023-04-03T21:24:27.410Z,1.91
2023-04-03T21:26:53.751Z,1.89
2023-04-03T21:29:20.322Z,1.87
2023-04-03T21:31:51.026Z,1.86
2023-04-03T21:34:18.335Z,1.87
2023-04-03T21:36:45.032Z,1.86
2023-04-03T21:39:11.786Z,1.87
2023-04-03T21:41:38.398Z,1.82
2023-04-03T21:44:05.001Z,1.79
2023-04-03T21:46:32.176Z,1.75
2023-04-03T21:48:58.678Z,1.78
2023-04-03T21:51:25.096Z,1.81
2023-04-03T21:53:53.460Z,1.78
2023-04-03T21:56:22.111Z,1.74
2023-04-03T21:58:49.052Z,1.70
2023-04-03T22:01:16.361Z,1.70
2023-04-03T22:03:43.755Z,1.69
2023-04-03T22:06:10.996Z,1.67
2023-04-03T22:08:37.455Z,1.63
2023-04-03T22:11:05.005Z,1.60
2023-04-03T22:13:31.539Z,1.56
2023-04-03T22:15:59.207Z,1.49
2023-04-03T22:18:26.217Z,1.45
2023-04-03T22:20:52.600Z,1.52
2023-04-03T22:23:19.338Z,1.51
2023-04-03T22:25:58.530Z,1.48
2023-04-03T22:28:25.817Z,1.45
2023-04-03T22:30:52.156Z,1.38
2023-04-03T22:33:18.529Z,1.33
2023-04-03T22:35:51.184Z,1.31
2023-04-03T22:38:17.835Z,1.29
2023-04-03T22:40:47.081Z,1.29
2023-04-03T22:43:13.536Z,1.25
2023-04-03T22:45:49.206Z,1.24
2023-04-03T22:48:16.870Z,1.25
2023-04-03T22:50:43.849Z,1.22
2023-04-03T22:53:10.503Z,1.18
2023-04-03T22:55:37.924Z,1.17
2023-04-03T22:58:04.712Z,1.12
2023-04-03T23:00:31.321Z,1.10
2023-04-03T23:03:01.796Z,1.07
2023-04-03T23:05:28.773Z,1.05
2023-04-03T23:07:57.621Z,1.01
2023-04-03T23:10:24.050Z,1.01
2023-04-03T23:12:50.421Z,0.98
2023-04-03T23:15:19.299Z,0.96
2023-04-03T23:17:48.554Z,0.93
2023-04-03T23:20:15.486Z,0.93
2023-04-03T23:22:45.028Z,0.90
2023-04-03T23:25:11.451Z,0.89
2023-04-03T23:27:37.913Z,0.89
2023-04-03T23:30:05.333Z,0.89
2023-04-03T23:32:31.791Z,0.84
2023-04-03T23:34:58.203Z,0.81
2023-04-03T23:37:24.559Z,0.79
2023-04-03T23:39:51.100Z,0.77
2023-04-03T23:42:17.473Z,0.76
2023-04-03T23:44:43.826Z,0.74
2023-04-03T23:47:10.227Z,0.71
2023-04-03T23:49:36.575Z,0.67
2023-04-03T23:52:03.211Z,0.66
2023-04-03T23:54:29.575Z,0.62
2023-04-03T23:56:56.514Z,0.62
2023-04-03T23:59:23.048Z,0.60
